createdAt,value
2023-01-22T00:01:42.292Z,-5.58
2023-01-22T00:07:04.574Z,-5.51
2023-01-22T00:12:27.024Z,-5.45
2023-01-22T00:17:52.325Z,-5.44
2023-01-22T00:23:14.065Z,-5.51
2023-01-22T00:28:35.586Z,-5.53
2023-01-22T00:33:57.728Z,-5.55
2023-01-22T00:39:19.526Z,-5.54
2023-01-22T00:44:41.886Z,-5.57
2023-01-22T00:50:05.925Z,-5.76
2023-01-22T00:55:28.865Z,-5.71
2023-01-22T01:00:55.360Z,-5.75
2023-01-22T01:06:24.423Z,-5.76
2023-01-22T01:11:47.537Z,-5.60
2023-01-22T01:17:12.443Z,-5.59
2023-01-22T01:22:40.643Z,-5.65
2023-01-22T01:28:05.617Z,-5.56
2023-01-22T01:33:31.725Z,-5.50
2023-01-22T01:39:08.925Z,-5.66
2023-01-22T01:44:32.525Z,-5.70
2023-01-22T01:49:54.612Z,-5.48
2023-01-22T01:55:20.045Z,-5.57
2023-01-22T02:00:45.200Z,-5.52
2023-01-22T02:06:11.577Z,-5.56
2023-01-22T02:11:35.016Z,-5.57
2023-01-22T02:17:19.144Z,-5.55
2023-01-22T02:22:44.714Z,-5.66
2023-01-22T02:28:07.446Z,-5.58
2023-01-22T02:33:29.808Z,-5.56
2023-01-22T02:38:51.885Z,-5.59
2023-01-22T02:44:16.527Z,-5.63
2023-01-22T02:49:39.942Z,-5.71
2023-01-22T02:55:01.963Z,-5.71
2023-01-22T03:00:24.525Z,-5.76
2023-01-22T03:05:51.656Z,-5.61
2023-01-22T03:11:13.579Z,-5.67
2023-01-22T03:16:56.566Z,-5.64
2023-01-22T03:22:18.800Z,-5.68
2023-01-22T03:28:00.843Z,-5.77
2023-01-22T03:33:23.950Z,-5.74
2023-01-22T03:38:46.740Z,-5.78
2023-01-22T03:44:14.748Z,-5.79
2023-01-22T03:49:41.142Z,-5.77
2023-01-22T03:55:05.723Z,-5.88
2023-01-22T04:00:33.922Z,-5.78
2023-01-22T04:06:10.444Z,-5.84
2023-01-22T04:11:36.301Z,-5.82
2023-01-22T04:17:05.805Z,-5.88
2023-01-22T04:22:52.422Z,-5.84
2023-01-22T04:28:18.749Z,-5.98
2023-01-22T04:33:44.604Z,-6.00
2023-01-22T04:39:17.086Z,-6.01
2023-01-22T04:44:43.527Z,-5.96
2023-01-22T04:50:16.033Z,-6.04
2023-01-22T04:55:44.241Z,-5.89
2023-01-22T05:01:10.419Z,-5.99
2023-01-22T05:06:35.643Z,-6.06
2023-01-22T05:11:58.886Z,-6.04
2023-01-22T05:17:25.211Z,-6.00
2023-01-22T05:22:58.248Z,-5.93
2023-01-22T05:28:27.987Z,-6.00
2023-01-22T05:34:13.766Z,-5.95
2023-01-22T05:40:03.166Z,-5.88
2023-01-22T05:45:27.311Z,-6.14
2023-01-22T05:51:19.838Z,-5.93
2023-01-22T05:56:42.363Z,-5.93
2023-01-22T06:02:04.470Z,-5.95
2023-01-22T06:07:31.334Z,-5.96
2023-01-22T06:12:54.147Z,-5.87
2023-01-22T06:18:16.073Z,-6.06
2023-01-22T06:23:38.388Z,-5.81
2023-01-22T06:29:02.478Z,-5.81
2023-01-22T06:34:24.958Z,-5.82
2023-01-22T06:39:46.796Z,-5.74
2023-01-22T06:45:30.947Z,-5.74
2023-01-22T06:50:59.636Z,-5.75
2023-01-22T06:56:21.923Z,-5.71
2023-01-22T07:01:46.369Z,-5.72
2023-01-22T07:07:08.328Z,-5.75
2023-01-22T07:12:32.764Z,-5.62
2023-01-22T07:17:55.703Z,-5.45
2023-01-22T07:23:17.778Z,-5.32
2023-01-22T07:28:40.146Z,-5.11
2023-01-22T07:34:02.915Z,-5.09
2023-01-22T07:39:24.867Z,-5.07
2023-01-22T07:44:47.047Z,-4.91
2023-01-22T07:50:09.864Z,-4.91
2023-01-22T07:55:43.661Z,-4.71
2023-01-22T08:01:12.182Z,-4.63
2023-01-22T08:06:34.587Z,-4.49
2023-01-22T08:12:00.172Z,-4.49
2023-01-22T08:17:26.606Z,-4.24
2023-01-22T08:22:49.414Z,-4.22
2023-01-22T08:28:20.826Z,-4.03
2023-01-22T08:33:47.286Z,-4.14
2023-01-22T08:39:14.348Z,-3.83
2023-01-22T08:44:38.056Z,-3.63
2023-01-22T08:50:02.492Z,-3.42
2023-01-22T08:55:25.307Z,-3.55
2023-01-22T09:00:47.437Z,-3.67
2023-01-22T09:06:09.446Z,-4.05
2023-01-22T09:11:32.354Z,-3.94
2023-01-22T09:16:54.743Z,-3.91
2023-01-22T09:22:16.517Z,-3.98
2023-01-22T09:27:38.714Z,-3.85
2023-01-22T09:33:00.746Z,-3.48
2023-01-22T09:38:22.937Z,-3.44
2023-01-22T09:43:50.357Z,-3.51
2023-01-22T09:49:18.716Z,-3.71
2023-01-22T09:54:44.851Z,-3.50
2023-01-22T10:00:20.584Z,-3.57
2023-01-22T10:05:52.519Z,-3.51
2023-01-22T10:11:15.413Z,-3.65
2023-01-22T10:16:49.641Z,-3.44
2023-01-22T10:22:22.900Z,-3.59
2023-01-22T10:27:50.735Z,-3.69
2023-01-22T10:33:23.446Z,-3.70
2023-01-22T10:38:45.571Z,-3.63
2023-01-22T10:44:37.232Z,-3.68
2023-01-22T10:50:13.521Z,-3.74
2023-01-22T10:55:42.216Z,-3.69
2023-01-22T11:01:09.559Z,-3.49
2023-01-22T11:06:48.185Z,-3.52
2023-01-22T11:12:36.615Z,-3.61
2023-01-22T11:18:04.787Z,-3.61
2023-01-22T11:23:52.736Z,-3.34
2023-01-22T11:29:42.843Z,-3.32
2023-01-22T11:35:28.011Z,-3.42
2023-01-22T11:41:28.054Z,-3.58
2023-01-22T11:53:15.844Z,-3.47
2023-01-22T11:58:47.681Z,-3.51
2023-01-22T12:04:29.658Z,-3.74
2023-01-22T12:10:25.932Z,-3.66
2023-01-22T12:16:21.704Z,-3.83
2023-01-22T12:22:08.970Z,-3.93
2023-01-22T12:27:41.416Z,-3.97
2023-01-22T12:33:07.499Z,-4.15
2023-01-22T12:39:01.080Z,-4.12
2023-01-22T12:44:37.754Z,-4.16
2023-01-22T12:50:00.051Z,-4.13
2023-01-22T12:55:35.533Z,-4.12
2023-01-22T13:01:12.502Z,-4.03
2023-01-22T13:06:38.773Z,-4.17
2023-01-22T13:12:09.930Z,-4.04
2023-01-22T13:17:34.771Z,-4.03
2023-01-22T13:22:58.874Z,-4.07
2023-01-22T13:28:22.278Z,-4.09
2023-01-22T13:34:16.433Z,-4.14
2023-01-22T13:39:38.255Z,-4.15
2023-01-22T13:50:58.113Z,-4.27
2023-01-22T13:56:29.320Z,-4.17
2023-01-22T14:02:09.772Z,-4.29
2023-01-22T14:08:09.766Z,-4.08
2023-01-22T14:19:29.704Z,-4.16
2023-01-22T14:24:57.692Z,-4.17
2023-01-22T14:30:29.146Z,-4.20
2023-01-22T14:35:57.816Z,-4.13
2023-01-22T14:41:27.797Z,-4.22
2023-01-22T14:46:58.066Z,-4.27
2023-01-22T14:52:28.544Z,-4.07
2023-01-22T14:57:50.911Z,-4.18
2023-01-22T15:03:13.024Z,-4.25
2023-01-22T15:08:35.103Z,-4.25
2023-01-22T15:13:57.188Z,-4.19
2023-01-22T15:19:19.397Z,-4.31
2023-01-22T15:24:41.757Z,-4.38
2023-01-22T15:30:06.846Z,-4.38
2023-01-22T15:35:29.018Z,-4.37
2023-01-22T15:40:50.947Z,-4.50
2023-01-22T15:46:13.040Z,-4.37
2023-01-22T15:51:36.211Z,-4.39
2023-01-22T15:56:58.763Z,-4.43
2023-01-22T16:02:21.218Z,-4.64
2023-01-22T16:07:43.447Z,-4.51
2023-01-22T16:13:05.436Z,-4.58
2023-01-22T16:18:28.298Z,-4.41
2023-01-22T16:23:55.061Z,-4.44
2023-01-22T16:29:17.156Z,-4.55
2023-01-22T16:34:39.522Z,-4.66
2023-01-22T16:40:01.736Z,-4.45
2023-01-22T16:45:24.804Z,-4.48
2023-01-22T16:50:47.234Z,-4.55
2023-01-22T16:56:09.488Z,-4.50
2023-01-22T17:01:32.505Z,-4.54
2023-01-22T17:06:56.892Z,-4.47
2023-01-22T17:12:18.766Z,-4.55
2023-01-22T17:17:41.000Z,-4.55
2023-01-22T17:23:03.553Z,-4.59
2023-01-22T17:28:25.602Z,-4.55
2023-01-22T17:33:48.495Z,-4.61
2023-01-22T17:39:17.461Z,-4.51
2023-01-22T17:44:40.410Z,-4.59
2023-01-22T17:50:06.095Z,-4.54
2023-01-22T17:55:33.586Z,-4.57
2023-01-22T18:01:01.683Z,-4.65
2023-01-22T18:06:33.100Z,-4.54
2023-01-22T18:12:00.015Z,-4.58
2023-01-22T18:17:32.807Z,-4.58
2023-01-22T18:22:57.727Z,-4.40
2023-01-22T18:28:22.493Z,-4.57
2023-01-22T18:33:46.642Z,-4.47
2023-01-22T18:39:13.383Z,-4.40
2023-01-22T18:44:48.408Z,-4.55
2023-01-22T18:50:12.446Z,-4.62
2023-01-22T18:55:35.361Z,-4.48
2023-01-22T19:00:59.302Z,-4.58
2023-01-22T19:06:24.922Z,-4.51
2023-01-22T19:11:49.063Z,-4.45
2023-01-22T19:17:10.986Z,-4.48
2023-01-22T19:22:33.395Z,-4.58
2023-01-22T19:27:56.327Z,-4.66
2023-01-22T19:33:18.002Z,-4.85
2023-01-22T19:38:40.100Z,-4.85
2023-01-22T19:44:03.161Z,-4.81
2023-01-22T19:49:25.572Z,-4.89
2023-01-22T19:54:51.103Z,-4.87
2023-01-22T20:00:13.624Z,-5.00
2023-01-22T20:05:45.763Z,-4.93
2023-01-22T20:11:09.825Z,-5.05
2023-01-22T20:16:31.929Z,-4.84
2023-01-22T20:21:54.310Z,-4.79
2023-01-22T20:27:16.860Z,-4.80
2023-01-22T20:32:38.885Z,-4.95
2023-01-22T20:38:01.616Z,-4.85
2023-01-22T20:43:23.365Z,-4.96
2023-01-22T20:48:46.530Z,-4.88
2023-01-22T20:54:09.441Z,-4.78
2023-01-22T20:59:31.874Z,-4.81
2023-01-22T21:04:54.458Z,-4.86
2023-01-22T21:10:17.188Z,-4.90
2023-01-22T21:15:39.106Z,-4.95
2023-01-22T21:21:01.213Z,-4.87
2023-01-22T21:26:31.769Z,-4.80
2023-01-22T21:31:54.638Z,-4.84
2023-01-22T21:37:16.711Z,-4.86
2023-01-22T21:42:57.022Z,-4.75
2023-01-22T21:48:19.394Z,-4.80
2023-01-22T21:53:54.697Z,-4.78
2023-01-22T21:59:18.776Z,-4.88
2023-01-22T22:04:49.144Z,-4.70
2023-01-22T22:10:18.112Z,-4.90
2023-01-22T22:15:47.559Z,-4.71
2023-01-22T22:21:12.996Z,-4.87
2023-01-22T22:26:37.421Z,-4.90
2023-01-22T22:32:12.662Z,-4.81
2023-01-22T22:37:35.025Z,-4.79
2023-01-22T22:43:11.933Z,-4.78
2023-01-22T22:48:35.372Z,-4.68
2023-01-22T22:53:59.733Z,-4.63
2023-01-22T22:59:21.811Z,-4.71
2023-01-22T23:04:43.753Z,-4.65
2023-01-22T23:10:06.114Z,-4.62
2023-01-22T23:15:30.262Z,-4.61
2023-01-22T23:20:55.563Z,-4.67
2023-01-22T23:26:30.385Z,-4.58
2023-01-22T23:31:52.501Z,-4.62
2023-01-22T23:37:14.854Z,-4.58
2023-01-22T23:42:36.924Z,-4.60
2023-01-22T23:48:23.061Z,-4.75
2023-01-22T23:54:23.454Z,-4.84
2023-01-22T23:59:52.594Z,-4.87
